Aérodrome :
LOGIN :

S'inscrire | Disclaimer

   EN    FR    IT 

 










Légende :    VFR   VFR Marginal   IFR   IFR Intensif   IFR Très Intensif
Visi : 
Plafond : 
>= 8 km
>= 3000ft
5 à 8 km
1000 à 3000 ft
1500m à 5 km
500 à 1000 ft
800 à 1500m
200 à 500 ft
< 800m
< 200 ft
Symboles :   Orages  Brouillard  Fortes neiges  Fortes précipitations  Vent > 20 kt
SIGMETs :   Divers  Orages  Givrage  Turbulence  Onde Orograph.  Cendres Volcan.






- Altitude de l'aérodrome : 1460 ft


LSMA - Alpnach

DERNIER METAR :
  • 190450Z AUTO 00000KT 9999NDV OVC030 02/01 Q1015 RMK

METARs EXPIRÉS :
  • 190420Z AUTO 00000KT 9999NDV BKN030 BKN140 02/01 Q1015 RMK
  • 190350Z AUTO 00000KT 9999NDV BKN029 02/01 Q1015 RMK
  • 190320Z AUTO VRB01KT 9999NDV FEW020 BKN029 02/00 Q1016 RMK
  • 190250Z AUTO 23002KT 9999NDV FEW020 BKN029 BKN130 02/01 Q1016 RMK
  • 190220Z AUTO 17002KT 9999NDV FEW023 BKN028 BKN120 02/01 Q1016 RMK

Prévision TAF périmée.



MET'MAP, la Météo Aéronautique d'un coup d'oeil ! - Copyright ORBIFLY Décembre 2007 - Disclaimer

ORBIFLY MET'MAP TEAM :

Programmation & Développement : Alexandra Zaïnal
Conception & Développement : Baudouin d'Aumeries
Co-Programmation & Développement : Marc-Olivier Méhu
Soutien technique & logistique : Manuel Goepfert

Contact : metmap@orbifly.com




SOURCES & CREDITS :

   NOAA